RU-0376 weather

Kalininskiy Airfield
Budyonnovsk, Stavropol Krai, Russia

Public forecast

Using degrees Celsius for public forecast. Weather courtesy of forecast.io.

Closest aviation weather report (METAR) to Kalininskiy Airfield

Closest report is Mineralnyye Vody Airport, 60.5 nm (112.1 km) SW. Retrieved 2020/02/26 22:30 UTC (32 minutes ago):

URMM 262230Z 12002MPS 9999 NSC 03/M06 Q1011 R12/090070 NOSIG RMK QFE731/0974

Closest aviation forecast (TAF) to Kalininskiy Airfield

Closest forecast is Mineralnyye Vody Airport, 60.5 nm (112.1 km) SW. Retrieved 2020/02/26 21:26 UTC (2 hours ago):

TAF URMM 262000Z 2621/2721 10003G08MPS 9999 NSC TX17/2712Z TN01/2703Z TEMPO 2621/2708 09005G12MPS